Time;durP1;ratioP1;P1;durP2;ratioP2;P2;SDS_P1;SDS_P2;PMS_P1;PMS_P2;Temp;Humidity;BMP_temperature;BMP_pressure;BME280_temperature;BME280_humidity;BME280_pressure;Samples;Min_cycle;Max_cycle;Signal;HPM_P1;HPM_P2
2022/07/27 00:00:49;;;;;;;15.10;13.63;;;25.90;77.20;;;;;;4981428;28;21429;-85
2022/07/27 00:03:15;;;;;;;15.90;13.73;;;25.90;77.20;;;;;;4997691;28;20287;-85
2022/07/27 00:05:41;;;;;;;13.32;11.88;;;25.90;77.20;;;;;;5013493;28;20033;-84
2022/07/27 00:08:07;;;;;;;13.98;12.55;;;25.90;77.30;;;;;;5014575;28;20042;-85
2022/07/27 00:10:34;;;;;;;15.68;14.05;;;25.90;77.40;;;;;;5015577;28;20579;-84
2022/07/27 00:13:00;;;;;;;15.40;13.80;;;25.90;77.40;;;;;;4997882;28;20034;-85
2022/07/27 00:15:26;;;;;;;14.38;12.90;;;25.80;77.60;;;;;;4998018;28;20042;-84
2022/07/27 00:17:52;;;;;;;16.45;13.90;;;25.70;77.70;;;;;;5013972;28;20037;-84
2022/07/27 00:20:18;;;;;;;15.48;13.13;;;25.80;77.70;;;;;;5015052;28;20452;-86
2022/07/27 00:22:44;;;;;;;14.93;13.38;;;25.80;77.60;;;;;;5032231;28;20041;-85
2022/07/27 00:25:10;;;;;;;17.17;13.35;;;25.80;77.70;;;;;;5019540;28;20037;-85
2022/07/27 00:27:36;;;;;;;14.95;12.93;;;25.70;77.60;;;;;;5010368;28;20507;-84
2022/07/27 00:30:03;;;;;;;15.43;13.70;;;25.80;77.60;;;;;;5032400;28;20064;-83
2022/07/27 00:32:29;;;;;;;14.88;13.43;;;25.80;77.70;;;;;;5024112;28;20038;-83
2022/07/27 00:34:55;;;;;;;15.48;13.85;;;25.80;77.70;;;;;;5015143;28;20037;-84
2022/07/27 00:37:21;;;;;;;15.77;14.13;;;25.70;77.60;;;;;;4982273;28;20069;-83
2022/07/27 00:39:46;;;;;;;15.27;13.68;;;25.80;77.70;;;;;;4995402;28;20516;-84
2022/07/27 00:42:12;;;;;;;14.93;13.38;;;25.70;77.80;;;;;;4982031;28;20041;-84
2022/07/27 00:44:39;;;;;;;15.05;13.45;;;25.70;77.90;;;;;;4981372;28;20042;-84
2022/07/27 00:47:05;;;;;;;13.73;12.25;;;25.70;77.90;;;;;;4978834;28;20037;-85
2022/07/27 00:49:31;;;;;;;14.75;12.57;;;25.70;77.80;;;;;;4978216;28;20069;-85
2022/07/27 00:51:58;;;;;;;15.30;13.55;;;25.70;77.80;;;;;;4994039;28;20046;-84
2022/07/27 00:54:24;;;;;;;14.82;13.25;;;25.70;77.80;;;;;;5001051;28;20335;-84
2022/07/27 00:56:50;;;;;;;16.30;13.32;;;25.70;77.80;;;;;;4993893;28;20539;-84
2022/07/27 00:59:16;;;;;;;15.35;13.35;;;25.70;77.80;;;;;;4962991;28;20034;-84
2022/07/27 01:01:42;;;;;;;15.18;13.77;;;25.70;77.80;;;;;;4993835;28;20092;-83
2022/07/27 01:04:08;;;;;;;14.73;13.23;;;25.70;77.80;;;;;;4994879;28;20053;-84
2022/07/27 01:06:34;;;;;;;14.70;13.30;;;25.70;77.90;;;;;;5010073;28;20058;-84
2022/07/27 01:11:47;;;;;;;16.00;13.60;;;25.70;77.80;;;;;;4995526;28;20050;-84
2022/07/27 01:14:15;;;;;;;15.25;13.65;;;25.70;77.80;;;;;;4992234;28;20026;-84
2022/07/27 01:16:41;;;;;;;15.07;13.27;;;25.70;77.90;;;;;;4969669;28;20030;-84
2022/07/27 01:19:11;;;;;;;15.18;13.73;;;25.70;77.90;;;;;;4994145;28;20046;-84
2022/07/27 01:21:37;;;;;;;14.77;13.40;;;25.70;77.90;;;;;;5013808;28;20131;-84
2022/07/27 01:24:04;;;;;;;15.68;13.95;;;25.60;77.90;;;;;;4997515;28;20536;-84
2022/07/27 01:26:32;;;;;;;16.38;14.20;;;25.60;78.00;;;;;;4998536;28;20030;-84
2022/07/27 01:29:00;;;;;;;15.63;14.07;;;25.70;78.00;;;;;;4997990;28;20184;-85
2022/07/27 01:31:26;;;;;;;15.27;13.07;;;25.60;78.60;;;;;;4999300;28;20042;-84
2022/07/27 01:33:52;;;;;;;13.27;11.98;;;25.60;77.90;;;;;;4983619;28;20030;-84
2022/07/27 01:36:18;;;;;;;14.18;12.57;;;25.60;77.90;;;;;;4980447;28;20064;-84
2022/07/27 01:38:45;;;;;;;17.08;13.88;;;25.70;77.80;;;;;;4998620;28;20449;-85
2022/07/27 01:41:11;;;;;;;16.13;13.82;;;25.60;78.00;;;;;;4998035;28;20034;-84
2022/07/27 01:43:38;;;;;;;13.40;12.13;;;25.60;78.10;;;;;;4997540;28;20073;-85
2022/07/27 01:46:04;;;;;;;14.13;12.63;;;25.60;77.90;;;;;;4982170;28;20390;-85
2022/07/27 01:48:30;;;;;;;13.27;12.05;;;25.60;77.90;;;;;;4980570;28;20045;-84
2022/07/27 01:50:56;;;;;;;15.90;13.38;;;25.60;77.80;;;;;;4981983;28;20038;-84
2022/07/27 01:53:22;;;;;;;15.05;12.68;;;25.60;77.70;;;;;;4997242;28;20037;-84
2022/07/27 01:55:50;;;;;;;14.05;12.75;;;25.60;77.90;;;;;;4997579;28;20030;-85
2022/07/27 01:58:16;;;;;;;14.07;12.73;;;25.60;77.90;;;;;;4998501;28;20030;-85
2022/07/27 02:00:42;;;;;;;13.00;11.82;;;25.60;77.90;;;;;;4996265;28;20030;-84
2022/07/27 02:03:10;;;;;;;12.43;11.18;;;25.60;77.90;;;;;;4997766;28;20573;-85
2022/07/27 02:05:37;;;;;;;13.30;11.98;;;25.60;77.90;;;;;;4997533;28;20029;-85
2022/07/27 02:08:07;;;;;;;12.70;11.40;;;25.70;77.80;;;;;;4981751;28;20401;-84
2022/07/27 02:10:34;;;;;;;13.38;12.18;;;25.70;77.80;;;;;;4969900;28;20033;-84
2022/07/27 02:13:00;;;;;;;14.57;12.70;;;25.70;77.80;;;;;;4985568;28;20173;-84
2022/07/27 02:15:28;;;;;;;13.75;12.43;;;25.70;77.80;;;;;;4980180;28;20133;-84
2022/07/27 02:17:54;;;;;;;13.70;12.30;;;25.70;77.80;;;;;;4982474;28;20039;-84
2022/07/27 02:20:23;;;;;;;13.18;11.95;;;25.70;77.90;;;;;;5000475;28;20117;-85
2022/07/27 02:22:50;;;;;;;13.30;11.77;;;25.60;77.80;;;;;;4966588;28;20040;-84
2022/07/27 02:25:20;;;;;;;12.63;11.45;;;25.70;77.90;;;;;;4992291;28;20040;-84
2022/07/27 02:27:48;;;;;;;12.98;11.80;;;25.70;77.70;;;;;;5015942;28;20087;-84
2022/07/27 02:30:14;;;;;;;14.45;12.52;;;25.70;77.70;;;;;;5021396;28;20029;-85
2022/07/27 02:32:41;;;;;;;14.70;12.85;;;25.80;77.60;;;;;;5016629;28;20029;-84
2022/07/27 02:35:07;;;;;;;14.65;13.15;;;25.80;77.60;;;;;;5015667;28;20033;-85
2022/07/27 02:37:33;;;;;;;14.48;13.07;;;25.90;77.60;;;;;;5003537;28;20048;-84
2022/07/27 02:39:59;;;;;;;13.98;12.63;;;25.90;77.50;;;;;;5014845;28;20033;-85
2022/07/27 02:42:25;;;;;;;13.40;12.00;;;26.00;77.40;;;;;;5016827;28;20472;-85
2022/07/27 02:44:51;;;;;;;12.25;11.05;;;26.00;77.30;;;;;;5012723;28;20073;-85
2022/07/27 02:47:16;;;;;;;12.73;11.40;;;26.10;77.20;;;;;;4996320;28;20061;-84
2022/07/27 02:49:42;;;;;;;12.32;11.32;;;26.20;77.20;;;;;;5012790;28;20044;-85
2022/07/27 02:52:09;;;;;;;14.25;12.75;;;26.20;77.20;;;;;;5012631;28;20129;-86
2022/07/27 02:54:35;;;;;;;17.33;14.93;;;26.30;77.40;;;;;;4996209;28;20112;-85
2022/07/27 02:57:04;;;;;;;15.93;14.27;;;26.30;77.50;;;;;;4996494;28;20116;-86
2022/07/27 02:59:30;;;;;;;19.25;15.75;;;26.30;77.40;;;;;;4996433;28;20516;-86
2022/07/27 03:01:56;;;;;;;17.55;15.75;;;26.30;77.60;;;;;;5013535;28;20494;-85
2022/07/27 03:04:22;;;;;;;18.42;15.13;;;26.30;77.60;;;;;;4994911;28;20089;-85
2022/07/27 03:06:48;;;;;;;17.50;15.68;;;26.30;77.70;;;;;;4995525;28;20034;-85
2022/07/27 03:09:14;;;;;;;18.52;16.45;;;26.20;77.70;;;;;;4995408;28;20027;-84
2022/07/27 03:11:40;;;;;;;20.83;15.85;;;26.20;77.60;;;;;;4995592;28;20028;-83
2022/07/27 03:14:06;;;;;;;16.73;15.00;;;26.20;77.50;;;;;;4981139;28;20061;-82
2022/07/27 03:16:32;;;;;;;17.58;15.88;;;26.20;77.40;;;;;;4999528;28;20505;-84
2022/07/27 03:18:58;;;;;;;18.55;16.60;;;26.30;77.50;;;;;;4996221;28;20062;-84
2022/07/27 03:21:24;;;;;;;18.65;16.67;;;26.20;77.60;;;;;;4996216;28;20040;-85
2022/07/27 03:23:50;;;;;;;18.33;16.48;;;26.20;77.50;;;;;;4978722;28;20038;-85
2022/07/27 03:26:18;;;;;;;19.25;17.25;;;26.30;77.60;;;;;;4997072;28;20049;-83
2022/07/27 03:28:44;;;;;;;18.10;16.40;;;26.20;77.60;;;;;;4995576;28;20034;-84
2022/07/27 03:31:10;;;;;;;22.63;17.20;;;26.20;77.70;;;;;;4994928;28;20037;-84
2022/07/27 03:33:36;;;;;;;18.50;16.52;;;26.20;77.80;;;;;;4995618;28;20038;-85
2022/07/27 03:36:02;;;;;;;20.33;17.75;;;26.20;77.70;;;;;;5012104;28;20033;-84
2022/07/27 03:38:28;;;;;;;19.80;17.70;;;26.20;77.70;;;;;;5011717;28;20030;-85
2022/07/27 03:40:54;;;;;;;23.27;17.42;;;26.20;77.80;;;;;;4979111;28;20073;-85
2022/07/27 03:43:20;;;;;;;24.58;18.55;;;26.20;78.00;;;;;;5010612;28;20030;-85
2022/07/27 03:45:46;;;;;;;20.40;17.75;;;26.20;78.00;;;;;;4979112;28;20111;-84
2022/07/27 03:48:12;;;;;;;17.55;15.65;;;26.20;78.10;;;;;;4983334;28;20049;-84
2022/07/27 03:50:38;;;;;;;19.73;16.23;;;26.30;78.10;;;;;;4996273;28;20038;-85
2022/07/27 03:53:04;;;;;;;21.45;17.13;;;26.40;78.20;;;;;;4997354;28;20390;-84
2022/07/27 03:55:30;;;;;;;23.27;17.42;;;26.50;77.80;;;;;;5011516;28;20045;-84
2022/07/27 03:57:56;;;;;;;23.13;19.10;;;26.60;77.00;;;;;;4995209;28;20034;-85
2022/07/27 04:00:23;;;;;;;26.10;19.20;;;26.80;76.50;;;;;;4994275;28;20591;-85
2022/07/27 04:02:48;;;;;;;25.73;20.77;;;26.90;76.20;;;;;;4978082;28;20097;-86
2022/07/27 04:05:15;;;;;;;23.98;21.08;;;26.90;75.90;;;;;;4979391;28;20038;-84
2022/07/27 04:07:40;;;;;;;22.42;18.63;;;27.00;75.70;;;;;;4995515;28;20493;-84
2022/07/27 04:10:07;;;;;;;22.65;20.25;;;27.10;75.50;;;;;;4977912;28;20034;-84
2022/07/27 04:12:36;;;;;;;28.27;20.38;;;27.10;75.20;;;;;;5011433;28;20034;-85
2022/07/27 04:15:03;;;;;;;24.98;20.30;;;27.10;75.00;;;;;;4961662;28;20295;-86
2022/07/27 04:17:29;;;;;;;25.67;19.42;;;27.20;74.80;;;;;;5010418;28;20039;-85
2022/07/27 04:19:55;;;;;;;23.95;18.67;;;27.30;74.60;;;;;;5010344;28;20026;-85
2022/07/27 04:22:21;;;;;;;22.40;18.10;;;27.40;75.00;;;;;;4994194;28;20490;-87
2022/07/27 04:24:47;;;;;;;23.52;18.52;;;27.50;74.10;;;;;;4993675;28;20119;-86
2022/07/27 04:27:13;;;;;;;22.70;18.60;;;27.60;73.90;;;;;;5010973;28;20447;-86
2022/07/27 04:29:39;;;;;;;21.35;19.05;;;27.70;73.80;;;;;;5009278;28;20037;-87
2022/07/27 04:32:05;;;;;;;21.20;18.08;;;27.70;73.50;;;;;;4995302;28;20528;-87
2022/07/27 04:34:31;;;;;;;22.85;18.40;;;27.80;73.40;;;;;;4985536;28;20034;-87
2022/07/27 04:36:57;;;;;;;22.77;17.67;;;27.80;73.30;;;;;;4994161;28;20038;-88
2022/07/27 04:39:23;;;;;;;22.02;18.13;;;27.80;73.10;;;;;;4994186;28;20422;-87
2022/07/27 04:41:49;;;;;;;22.83;18.10;;;27.90;73.10;;;;;;4994227;28;20038;-86
2022/07/27 04:44:15;;;;;;;23.63;18.40;;;28.00;73.10;;;;;;4994969;28;20041;-88
2022/07/27 04:46:41;;;;;;;19.98;17.90;;;28.00;72.90;;;;;;4977815;28;20038;-87
2022/07/27 04:49:07;;;;;;;20.98;18.10;;;28.10;72.90;;;;;;4978411;28;20049;-87
2022/07/27 04:51:34;;;;;;;21.42;17.83;;;28.10;72.70;;;;;;4965698;28;20029;-86
2022/07/27 04:54:00;;;;;;;21.23;17.77;;;28.10;72.60;;;;;;4993958;28;20038;-87
2022/07/27 04:56:26;;;;;;;21.20;17.50;;;28.10;72.50;;;;;;4997153;28;20031;-86
2022/07/27 04:58:52;;;;;;;19.83;17.70;;;28.20;72.90;;;;;;4986542;28;20215;-87
2022/07/27 05:01:18;;;;;;;19.50;17.42;;;28.20;72.20;;;;;;5014667;28;20030;-87
2022/07/27 05:03:44;;;;;;;19.50;17.48;;;28.20;72.10;;;;;;5014496;28;20041;-86
2022/07/27 05:06:10;;;;;;;18.90;17.00;;;28.20;72.10;;;;;;4997880;28;20532;-87
2022/07/27 05:08:36;;;;;;;18.27;16.52;;;28.30;72.00;;;;;;4998831;28;20040;-88
2022/07/27 05:11:02;;;;;;;20.90;17.10;;;28.40;71.90;;;;;;4980875;28;20037;-87
2022/07/27 05:13:28;;;;;;;19.48;17.10;;;28.40;71.90;;;;;;4981696;28;20038;-86
2022/07/27 05:15:54;;;;;;;18.60;16.73;;;28.50;71.80;;;;;;4998159;28;20066;-88
2022/07/27 05:18:19;;;;;;;19.02;17.02;;;28.50;71.60;;;;;;4980702;28;20038;-88
2022/07/27 05:20:45;;;;;;;18.75;16.65;;;28.60;71.50;;;;;;4981955;28;20173;-87
2022/07/27 05:23:11;;;;;;;19.08;16.48;;;28.60;71.40;;;;;;4982247;28;20397;-87
2022/07/27 05:25:37;;;;;;;18.45;16.48;;;28.60;71.50;;;;;;4998001;28;20080;-88
2022/07/27 05:28:04;;;;;;;18.73;16.30;;;28.70;71.40;;;;;;4981635;28;20038;-89
2022/07/27 05:30:30;;;;;;;19.42;17.35;;;28.70;71.30;;;;;;4979764;28;20037;-87
2022/07/27 05:32:56;;;;;;;18.52;16.42;;;28.90;71.30;;;;;;4999004;28;20445;-88
2022/07/27 05:35:22;;;;;;;18.58;16.73;;;28.90;71.00;;;;;;4981685;28;20037;-88
2022/07/27 05:37:48;;;;;;;17.42;15.63;;;28.90;71.10;;;;;;4982540;28;20042;-88
2022/07/27 05:40:14;;;;;;;16.25;14.57;;;28.90;71.10;;;;;;5002224;28;20045;-86
2022/07/27 05:42:43;;;;;;;17.52;15.70;;;29.00;71.10;;;;;;5016852;28;20039;-88
2022/07/27 05:45:10;;;;;;;19.23;17.30;;;29.00;70.80;;;;;;4996376;28;20448;-88
2022/07/27 05:47:37;;;;;;;18.45;16.65;;;29.10;70.50;;;;;;5014681;28;20045;-89
2022/07/27 05:50:03;;;;;;;17.55;15.85;;;29.10;70.00;;;;;;4982966;28;20034;-89
2022/07/27 05:52:29;;;;;;;18.30;16.35;;;29.10;70.00;;;;;;4997702;28;20037;-89
2022/07/27 05:54:55;;;;;;;17.48;15.70;;;29.20;70.00;;;;;;4981146;28;20413;-90
2022/07/27 05:57:21;;;;;;;19.20;17.30;;;29.30;69.70;;;;;;4997214;28;20030;-89
2022/07/27 05:59:47;;;;;;;18.48;16.55;;;29.40;69.30;;;;;;4982275;28;20196;-89
2022/07/27 06:02:13;;;;;;;18.25;16.45;;;29.40;69.10;;;;;;4974118;28;20026;-89
2022/07/27 06:04:39;;;;;;;18.30;16.50;;;29.50;68.90;;;;;;4982341;28;20748;-87
2022/07/27 06:09:49;;;;;;;17.30;15.50;;;29.60;69.00;;;;;;4998997;28;20626;-89
2022/07/27 06:12:15;;;;;;;17.73;15.90;;;29.60;69.20;;;;;;4988877;28;20283;-89
2022/07/27 06:14:41;;;;;;;18.75;16.90;;;29.60;68.90;;;;;;4970475;28;20088;-89
2022/07/27 06:17:08;;;;;;;19.30;17.42;;;29.70;68.90;;;;;;4966890;28;20040;-88
2022/07/27 06:19:38;;;;;;;18.55;16.85;;;29.70;68.70;;;;;;4997563;28;20029;-90
2022/07/27 06:22:05;;;;;;;18.45;16.65;;;29.70;68.70;;;;;;4981354;28;20436;-90
2022/07/27 06:24:32;;;;;;;17.92;16.13;;;29.80;68.60;;;;;;4996713;28;20413;-89
2022/07/27 06:26:58;;;;;;;17.77;16.05;;;29.80;68.60;;;;;;4981286;28;20034;-89
2022/07/27 06:29:24;;;;;;;20.70;17.95;;;29.80;68.60;;;;;;4980647;28;20046;-89
2022/07/27 06:31:50;;;;;;;18.13;16.20;;;29.90;69.20;;;;;;5032373;28;20049;-88
2022/07/27 06:34:16;;;;;;;17.90;16.10;;;29.90;68.50;;;;;;4998933;28;20528;-90
2022/07/27 06:36:44;;;;;;;20.20;18.13;;;29.90;68.50;;;;;;5015588;28;20040;-84
2022/07/27 06:39:11;;;;;;;17.98;16.23;;;29.90;67.70;;;;;;5018343;28;20044;-89
2022/07/27 06:41:37;;;;;;;18.65;16.85;;;29.90;68.00;;;;;;5018710;28;20038;-89
2022/07/27 06:44:04;;;;;;;20.65;18.63;;;30.00;68.10;;;;;;5018287;28;20052;-89
2022/07/27 06:46:30;;;;;;;19.50;17.70;;;30.00;67.40;;;;;;5020500;28;20034;-88
2022/07/27 06:48:56;;;;;;;21.15;18.90;;;30.10;67.10;;;;;;5016095;28;20057;-88
2022/07/27 06:51:23;;;;;;;20.17;18.17;;;30.00;67.20;;;;;;5001391;28;20072;-88
2022/07/27 06:53:53;;;;;;;20.15;17.85;;;29.90;67.40;;;;;;4998993;28;20044;-88
2022/07/27 06:56:20;;;;;;;20.50;18.40;;;29.90;67.50;;;;;;5000353;28;20419;-87
2022/07/27 06:58:46;;;;;;;22.02;19.50;;;29.90;67.60;;;;;;5016749;28;20111;-87
2022/07/27 07:01:13;;;;;;;21.15;18.95;;;29.90;67.70;;;;;;5016319;28;20037;-88
2022/07/27 07:03:39;;;;;;;22.98;20.25;;;29.80;67.90;;;;;;5004046;28;20054;-87
2022/07/27 07:06:05;;;;;;;21.67;19.33;;;29.80;68.00;;;;;;5017064;28;20095;-88
2022/07/27 07:08:31;;;;;;;22.23;18.67;;;29.80;68.10;;;;;;5021501;28;20047;-87
2022/07/27 07:10:57;;;;;;;21.48;19.48;;;29.80;68.10;;;;;;4983227;28;20030;-88
2022/07/27 07:13:23;;;;;;;20.90;18.75;;;29.80;68.10;;;;;;4999286;28;20064;-87
2022/07/27 07:15:49;;;;;;;21.67;19.52;;;29.70;68.10;;;;;;5014209;28;20034;-88
2022/07/27 07:18:15;;;;;;;24.73;19.30;;;29.80;68.10;;;;;;4998486;28;20047;-87
2022/07/27 07:20:41;;;;;;;20.95;18.85;;;29.80;68.10;;;;;;5015782;28;20033;-88
2022/07/27 07:23:08;;;;;;;21.48;18.98;;;29.80;68.10;;;;;;5017545;28;20026;-87
2022/07/27 07:25:35;;;;;;;21.58;19.30;;;29.70;68.00;;;;;;5004808;28;20034;-86
2022/07/27 07:28:01;;;;;;;21.05;18.95;;;29.70;68.00;;;;;;5014639;28;20531;-87
2022/07/27 07:30:28;;;;;;;21.92;19.08;;;29.70;67.90;;;;;;5014239;28;20346;-85
2022/07/27 07:32:54;;;;;;;21.63;19.38;;;29.80;68.00;;;;;;5020253;28;20037;-87
2022/07/27 07:35:20;;;;;;;25.10;18.58;;;29.70;67.90;;;;;;4999136;28;20500;-87
2022/07/27 07:37:46;;;;;;;21.50;19.30;;;29.70;68.00;;;;;;4982527;28;20342;-88
2022/07/27 07:40:12;;;;;;;21.85;19.60;;;29.80;68.10;;;;;;5002330;28;20346;-89
2022/07/27 07:42:56;;;;;;;21.17;18.98;;;29.70;68.00;;;;;;4998563;28;20363;-88
2022/07/27 07:45:23;;;;;;;21.70;19.58;;;29.70;67.80;;;;;;5013598;28;20044;-88
2022/07/27 07:47:50;;;;;;;21.13;18.90;;;29.70;68.00;;;;;;4998029;28;20044;-87
2022/07/27 07:50:17;;;;;;;20.13;18.33;;;29.70;67.90;;;;;;5015057;28;20095;-88
2022/07/27 07:52:43;;;;;;;21.23;19.02;;;29.70;67.90;;;;;;4997818;28;20095;-86
2022/07/27 07:55:10;;;;;;;20.50;18.40;;;29.70;68.00;;;;;;4998269;28;20062;-88
2022/07/27 07:57:38;;;;;;;19.90;18.00;;;29.60;68.10;;;;;;5030260;28;20037;-89
2022/07/27 08:00:06;;;;;;;19.75;17.77;;;29.60;68.00;;;;;;5030835;28;20531;-88
2022/07/27 08:02:49;;;;;;;20.40;18.30;;;29.60;67.90;;;;;;5015062;28;20038;-88
2022/07/27 08:05:16;;;;;;;19.20;17.40;;;29.60;67.70;;;;;;5002531;28;20143;-89
2022/07/27 08:07:44;;;;;;;19.90;17.95;;;29.60;67.70;;;;;;4997552;28;20088;-87
2022/07/27 08:10:12;;;;;;;19.52;17.83;;;29.60;67.70;;;;;;4982022;28;20057;-89
2022/07/27 08:12:42;;;;;;;20.08;18.15;;;29.50;67.60;;;;;;5015609;28;20034;-87
2022/07/27 08:15:10;;;;;;;19.20;17.40;;;29.50;67.60;;;;;;4997013;28;20603;-87
2022/07/27 08:17:36;;;;;;;18.67;16.92;;;29.50;67.80;;;;;;5003359;28;20025;-89
2022/07/27 08:20:03;;;;;;;19.60;17.70;;;29.50;67.90;;;;;;5014294;28;20030;-88
2022/07/27 08:22:29;;;;;;;20.35;18.38;;;29.50;68.00;;;;;;4981227;28;20501;-87
2022/07/27 08:24:55;;;;;;;20.00;17.90;;;29.50;68.10;;;;;;4999808;28;20087;-88
2022/07/27 08:27:21;;;;;;;20.58;18.67;;;29.50;68.20;;;;;;5019127;28;20515;-86
2022/07/27 08:29:47;;;;;;;20.67;18.58;;;29.50;68.20;;;;;;5003053;28;20069;-86
2022/07/27 08:32:13;;;;;;;21.05;18.92;;;29.50;68.40;;;;;;4999791;28;20060;-89
2022/07/27 08:34:39;;;;;;;20.52;18.40;;;29.50;68.50;;;;;;4997765;28;20086;-88
2022/07/27 08:37:05;;;;;;;19.80;17.88;;;29.40;68.50;;;;;;5014150;28;20041;-88
2022/07/27 08:39:31;;;;;;;20.90;18.20;;;29.40;68.70;;;;;;4997709;28;20068;-88
2022/07/27 08:42:03;;;;;;;21.63;19.50;;;29.40;68.70;;;;;;4998130;28;20052;-88
2022/07/27 08:44:29;;;;;;;19.85;18.05;;;29.50;68.80;;;;;;4996413;28;20037;-86
2022/07/27 08:46:56;;;;;;;20.45;18.45;;;29.40;68.80;;;;;;5014845;28;20091;-88
2022/07/27 08:49:22;;;;;;;20.75;18.73;;;29.40;68.90;;;;;;4997553;28;20086;-86
2022/07/27 08:51:49;;;;;;;20.15;18.15;;;29.40;68.80;;;;;;5013329;28;20133;-88
2022/07/27 08:54:15;;;;;;;21.48;19.27;;;29.40;68.40;;;;;;4996843;28;20117;-89
2022/07/27 08:56:42;;;;;;;20.80;18.85;;;29.40;68.10;;;;;;4997428;28;20026;-88
2022/07/27 08:59:08;;;;;;;20.77;18.77;;;29.40;67.60;;;;;;4981591;28;20030;-88
2022/07/27 09:01:37;;;;;;;20.27;18.48;;;29.40;67.30;;;;;;5012904;28;20037;-89
2022/07/27 09:04:04;;;;;;;20.20;18.42;;;29.40;67.20;;;;;;4997749;28;20045;-88
2022/07/27 09:06:46;;;;;;;22.00;19.60;;;29.40;67.20;;;;;;5013264;28;20034;-87
2022/07/27 09:09:15;;;;;;;20.95;19.05;;;29.30;67.10;;;;;;4989544;28;20034;-88
2022/07/27 09:11:41;;;;;;;21.70;19.60;;;29.40;67.40;;;;;;5016881;28;20464;-88
2022/07/27 09:14:11;;;;;;;21.02;18.98;;;29.30;67.30;;;;;;4997480;28;20045;-87
2022/07/27 09:16:38;;;;;;;21.77;19.65;;;29.40;67.40;;;;;;5019812;28;20068;-88
2022/07/27 09:19:06;;;;;;;19.95;18.15;;;29.40;67.30;;;;;;4996743;28;20041;-89
2022/07/27 09:21:34;;;;;;;21.02;18.90;;;29.40;67.40;;;;;;4996521;28;20032;-88
2022/07/27 09:24:07;;;;;;;20.23;17.88;;;29.40;67.30;;;;;;4978861;28;20077;-88
2022/07/27 09:26:34;;;;;;;19.80;17.85;;;29.40;67.00;;;;;;4997033;28;20033;-88
2022/07/27 09:29:06;;;;;;;19.38;17.52;;;29.30;66.90;;;;;;4985383;28;20022;-87
2022/07/27 09:31:46;;;;;;;19.30;17.58;;;29.40;66.60;;;;;;5013197;28;20101;-87
2022/07/27 09:34:26;;;;;;;17.88;16.20;;;29.40;65.90;;;;;;5014099;28;20445;-88
2022/07/27 09:36:54;;;;;;;16.88;15.35;;;29.30;65.30;;;;;;5000497;28;20060;-86
2022/07/27 09:39:22;;;;;;;18.52;16.38;;;29.30;65.10;;;;;;4968815;28;20034;-87
2022/07/27 09:41:50;;;;;;;16.45;14.85;;;29.30;64.90;;;;;;4954119;28;20034;-86
2022/07/27 09:44:16;;;;;;;17.58;16.08;;;29.30;64.80;;;;;;4965279;28;20022;-87
2022/07/27 09:46:45;;;;;;;16.42;14.98;;;29.30;64.70;;;;;;5013153;28;20390;-87
2022/07/27 09:49:33;;;;;;;17.27;15.52;;;29.30;64.70;;;;;;4965224;28;20647;-88
2022/07/27 09:52:02;;;;;;;17.42;15.90;;;29.30;64.60;;;;;;4981063;28;20045;-88
2022/07/27 09:54:43;;;;;;;17.45;15.80;;;29.30;64.70;;;;;;4995299;28;20044;-87
2022/07/27 09:57:09;;;;;;;17.65;15.98;;;29.30;64.80;;;;;;4964690;28;20619;-87
2022/07/27 09:59:35;;;;;;;17.70;16.00;;;29.20;65.40;;;;;;4981760;28;20034;-88
2022/07/27 10:02:01;;;;;;;18.20;16.52;;;29.20;65.00;;;;;;4997633;28;20040;-87
2022/07/27 10:04:27;;;;;;;18.02;16.42;;;29.20;64.90;;;;;;4997520;28;20776;-87
2022/07/27 10:06:53;;;;;;;19.58;16.40;;;29.30;65.00;;;;;;4980141;28;20041;-87
2022/07/27 10:09:19;;;;;;;18.48;16.70;;;29.20;65.00;;;;;;4996607;28;20041;-87
2022/07/27 10:11:47;;;;;;;17.92;16.17;;;29.30;65.10;;;;;;4997718;28;20416;-87
2022/07/27 10:14:14;;;;;;;18.27;16.67;;;29.20;65.10;;;;;;4996632;28;20555;-87
2022/07/27 10:16:41;;;;;;;19.33;17.42;;;29.20;65.20;;;;;;4996416;28;20066;-87
2022/07/27 10:19:14;;;;;;;18.63;16.73;;;29.20;65.10;;;;;;4967286;28;20034;-87
2022/07/27 10:21:44;;;;;;;18.67;17.00;;;29.20;65.10;;;;;;5000650;28;20121;-88
2022/07/27 10:24:22;;;;;;;19.52;17.52;;;29.20;65.00;;;;;;5000680;28;20033;-87
2022/07/27 10:26:48;;;;;;;19.42;17.48;;;29.20;64.80;;;;;;4983674;28;20124;-86
2022/07/27 10:29:19;;;;;;;19.02;17.25;;;29.20;64.60;;;;;;4972955;28;20090;-87
2022/07/27 10:32:07;;;;;;;19.25;17.25;;;29.20;64.40;;;;;;4968834;28;20038;-87
2022/07/27 10:34:39;;;;;;;17.85;16.00;;;29.20;64.20;;;;;;4985270;28;20045;-88
2022/07/27 10:37:16;;;;;;;17.00;15.45;;;29.20;64.20;;;;;;4984997;28;20034;-86
2022/07/27 10:39:48;;;;;;;18.52;16.65;;;29.20;64.00;;;;;;4986935;28;20046;-88
2022/07/27 10:42:21;;;;;;;18.75;16.85;;;29.20;64.00;;;;;;4981289;28;20044;-88
2022/07/27 10:45:01;;;;;;;19.20;17.30;;;29.20;63.90;;;;;;4995863;28;20044;-89
2022/07/27 10:47:34;;;;;;;18.02;16.40;;;29.10;63.90;;;;;;4975056;28;20070;-88
2022/07/27 10:50:16;;;;;;;17.85;16.25;;;29.20;63.80;;;;;;4997066;28;20133;-89
2022/07/27 10:52:51;;;;;;;17.70;16.00;;;29.10;63.20;;;;;;4995329;28;20034;-87
2022/07/27 10:55:29;;;;;;;17.60;15.93;;;29.20;63.50;;;;;;4996230;28;20545;-88
2022/07/27 10:58:15;;;;;;;17.55;15.77;;;29.10;63.20;;;;;;5011916;28;20031;-89
2022/07/27 11:00:50;;;;;;;17.27;15.68;;;29.20;63.30;;;;;;4995625;28;20065;-88
2022/07/27 11:03:23;;;;;;;17.58;16.08;;;29.10;63.30;;;;;;4995481;28;20121;-87
2022/07/27 11:05:57;;;;;;;17.25;15.73;;;29.10;63.30;;;;;;5011483;28;20048;-89
2022/07/27 11:08:47;;;;;;;17.67;16.08;;;29.10;63.30;;;;;;5006760;28;20030;-88
2022/07/27 11:11:18;;;;;;;16.83;15.32;;;29.10;63.40;;;;;;5019907;28;20049;-86
2022/07/27 11:13:46;;;;;;;17.55;15.77;;;29.10;63.50;;;;;;4990509;28;20085;-88
2022/07/27 11:16:15;;;;;;;16.92;15.32;;;29.10;63.50;;;;;;4986844;28;20099;-88
2022/07/27 11:18:42;;;;;;;17.50;15.80;;;29.10;63.50;;;;;;4970027;28;20063;-88
2022/07/27 11:21:36;;;;;;;17.35;15.60;;;29.10;63.60;;;;;;4978845;28;20083;-87
2022/07/27 11:24:18;;;;;;;17.98;16.25;;;29.10;63.60;;;;;;5012488;28;20399;-89
2022/07/27 11:26:48;;;;;;;17.20;15.68;;;29.10;63.60;;;;;;4982566;28;20128;-87
2022/07/27 11:29:16;;;;;;;17.85;16.15;;;29.10;63.90;;;;;;5002320;28;20120;-88
2022/07/27 11:31:43;;;;;;;17.52;15.93;;;29.10;63.80;;;;;;5013732;28;20034;-85
2022/07/27 11:34:12;;;;;;;17.80;16.23;;;29.10;63.90;;;;;;4997642;28;20036;-86
2022/07/27 11:36:43;;;;;;;17.90;16.20;;;29.10;63.90;;;;;;5014264;28;20145;-88
2022/07/27 11:39:15;;;;;;;20.15;17.42;;;29.10;64.00;;;;;;5029944;28;20034;-86
2022/07/27 11:41:42;;;;;;;18.25;16.45;;;29.10;63.80;;;;;;4997224;28;20408;-85
2022/07/27 11:44:10;;;;;;;18.55;16.83;;;29.10;64.00;;;;;;4998444;28;20463;-85
2022/07/27 11:46:41;;;;;;;19.20;17.27;;;29.10;64.00;;;;;;5015440;28;20034;-88
2022/07/27 11:49:12;;;;;;;18.15;16.45;;;29.10;63.90;;;;;;5013764;28;20509;-85
2022/07/27 11:51:48;;;;;;;18.40;16.75;;;29.10;63.80;;;;;;5000081;28;20263;-88
2022/07/27 11:54:26;;;;;;;17.60;15.93;;;29.10;63.60;;;;;;4998670;28;20038;-88
2022/07/27 11:56:56;;;;;;;17.95;16.23;;;29.10;63.40;;;;;;4991130;28;20042;-87
2022/07/27 11:59:26;;;;;;;17.92;16.23;;;29.00;63.30;;;;;;4991148;28;20030;-87
2022/07/27 12:02:00;;;;;;;18.50;16.83;;;29.00;63.10;;;;;;5015263;28;20129;-88
2022/07/27 12:04:32;;;;;;;18.30;16.67;;;29.10;63.10;;;;;;4974459;28;20130;-88
2022/07/27 12:07:09;;;;;;;18.10;16.40;;;29.10;62.50;;;;;;4983558;28;20026;-88
2022/07/27 12:09:37;;;;;;;18.17;16.35;;;29.00;62.90;;;;;;5002163;28;20397;-88
2022/07/27 12:12:10;;;;;;;18.52;16.65;;;29.10;62.70;;;;;;4998511;28;20404;-88
2022/07/27 12:14:38;;;;;;;17.92;16.15;;;29.10;62.50;;;;;;4995848;28;20417;-88
2022/07/27 12:17:28;;;;;;;17.90;16.30;;;29.10;62.40;;;;;;4998419;28;20021;-88
2022/07/27 12:20:10;;;;;;;19.42;17.52;;;29.10;62.30;;;;;;4998110;28;20038;-87
2022/07/27 12:22:38;;;;;;;19.60;17.67;;;29.00;62.30;;;;;;5002745;28;20041;-87
2022/07/27 12:25:31;;;;;;;17.88;16.15;;;29.00;63.10;;;;;;4996901;28;20289;-87
2022/07/27 12:28:07;;;;;;;17.13;15.52;;;29.00;62.50;;;;;;5018553;28;20049;-87
2022/07/27 12:30:39;;;;;;;18.52;16.60;;;29.00;62.70;;;;;;5017378;28;20587;-87
2022/07/27 12:33:29;;;;;;;18.60;16.83;;;29.10;62.90;;;;;;5013308;28;20405;-87
2022/07/27 12:35:57;;;;;;;19.75;17.65;;;29.00;62.70;;;;;;5018061;28;20053;-87
2022/07/27 12:38:24;;;;;;;19.25;17.40;;;29.00;63.00;;;;;;5031128;28;21214;-90